Time;durP1;ratioP1;P1;durP2;ratioP2;P2;SDS_P1;SDS_P2;PMS_P1;PMS_P2;Temp;Humidity;BMP_temperature;BMP_pressure;BME280_temperature;BME280_humidity;BME280_pressure;Samples;Min_cycle;Max_cycle;Signal;HPM_P1;HPM_P2
2022/01/04 00:00:34;;;;;;;32.00;7.50;;;;;;;;;;6304761;22;20015;-95
2022/01/04 00:03:01;;;;;;;15.27;6.45;;;;;;;;;;6274063;22;20012;-96
2022/01/04 00:05:32;;;;;;;22.40;6.82;;;;;;;;;;6274127;22;20015;-96
2022/01/04 00:07:59;;;;;;;25.98;7.70;;;;;;;;;;6274144;22;20014;-96
2022/01/04 00:10:28;;;;;;;18.50;7.22;;;;;;;;;;6273937;22;20068;-95
2022/01/04 00:15:44;;;;;;;18.77;7.13;;;;;;;;;;6274611;22;20004;-96
2022/01/04 00:18:12;;;;;;;24.90;8.32;;;;;;;;;;6273558;22;20039;-96
2022/01/04 00:20:40;;;;;;;27.92;9.18;;;;;;;;;;6273824;22;20031;-96
2022/01/04 00:23:08;;;;;;;18.80;8.70;;;;;;;;;;6273946;22;20036;-96
2022/01/04 00:25:36;;;;;;;23.42;9.25;;;;;;;;;;6274077;22;20016;-96
2022/01/04 00:28:07;;;;;;;24.58;8.38;;;;;;;;;;6274101;22;20091;-96
2022/01/04 00:30:49;;;;;;;31.42;8.60;;;;;;;;;;6273561;22;20008;-96
2022/01/04 00:33:18;;;;;;;19.58;8.80;;;;;;;;;;6274070;22;20008;-95
2022/01/04 00:35:53;;;;;;;26.65;9.07;;;;;;;;;;6274169;22;20137;-95
2022/01/04 00:38:20;;;;;;;25.58;9.15;;;;;;;;;;6274063;22;20031;-95
2022/01/04 00:40:50;;;;;;;26.65;9.23;;;;;;;;;;6276275;22;20004;-93
2022/01/04 00:43:18;;;;;;;28.38;9.63;;;;;;;;;;6276155;22;20067;-95
2022/01/04 00:45:49;;;;;;;27.45;10.40;;;;;;;;;;6276214;22;20020;-94
2022/01/04 00:50:47;;;;;;;19.88;10.15;;;;;;;;;;6276650;22;20051;-95
2022/01/04 00:53:14;;;;;;;27.10;10.25;;;;;;;;;;6275725;22;20030;-96
2022/01/04 00:55:43;;;;;;;30.40;11.52;;;;;;;;;;6275594;22;20027;-95
2022/01/04 00:58:11;;;;;;;28.23;11.85;;;;;;;;;;6275367;22;20028;-95
2022/01/04 01:00:38;;;;;;;20.90;11.32;;;;;;;;;;6275556;22;20020;-95
2022/01/04 01:03:06;;;;;;;24.38;10.80;;;;;;;;;;6275659;22;20015;-94
2022/01/04 01:05:34;;;;;;;24.13;12.15;;;;;;;;;;6275480;22;20007;-94
2022/01/04 01:08:13;;;;;;;27.83;11.60;;;;;;;;;;6275637;22;20020;-95
2022/01/04 01:10:48;;;;;;;24.75;10.95;;;;;;;;;;6275632;22;20024;-95
2022/01/04 01:13:15;;;;;;;26.17;12.07;;;;;;;;;;6275416;22;20030;-96
2022/01/04 01:15:45;;;;;;;27.58;11.55;;;;;;;;;;6275900;22;20054;-95
2022/01/04 01:18:15;;;;;;;26.73;11.48;;;;;;;;;;6275146;22;20030;-95
2022/01/04 01:20:42;;;;;;;31.98;11.45;;;;;;;;;;6275475;22;20064;-95
2022/01/04 01:23:09;;;;;;;25.15;11.77;;;;;;;;;;6275443;22;20058;-95
2022/01/04 01:25:39;;;;;;;24.33;11.45;;;;;;;;;;6275515;22;20008;-96
2022/01/04 01:28:06;;;;;;;23.88;10.80;;;;;;;;;;6275299;22;20020;-95
2022/01/04 01:30:36;;;;;;;22.60;11.13;;;;;;;;;;6275382;22;20022;-95
2022/01/04 01:33:06;;;;;;;24.95;11.38;;;;;;;;;;6275802;22;20004;-95
2022/01/04 01:35:38;;;;;;;21.52;11.43;;;;;;;;;;6275375;22;20008;-95
2022/01/04 01:38:08;;;;;;;24.13;12.50;;;;;;;;;;6275310;22;20019;-95
2022/01/04 01:40:38;;;;;;;30.45;12.63;;;;;;;;;;6275291;22;20015;-95
2022/01/04 01:43:07;;;;;;;33.58;12.77;;;;;;;;;;6275391;22;20008;-95
2022/01/04 01:45:34;;;;;;;33.40;13.18;;;;;;;;;;6275420;22;20021;-95
2022/01/04 01:48:02;;;;;;;22.17;12.70;;;;;;;;;;6275173;22;20031;-94
2022/01/04 01:50:29;;;;;;;31.02;14.15;;;;;;;;;;6274964;22;20008;-95
2022/01/04 01:56:18;;;;;;;34.70;13.52;;;;;;;;;;6275936;22;20007;-96
2022/01/04 01:58:45;;;;;;;32.97;14.35;;;;;;;;;;6275147;22;20023;-95
2022/01/04 02:01:12;;;;;;;35.42;15.82;;;;;;;;;;6275035;22;20010;-95
2022/01/04 02:03:39;;;;;;;32.33;14.25;;;;;;;;;;6275177;22;20015;-95
2022/01/04 02:06:07;;;;;;;26.00;12.35;;;;;;;;;;6275050;22;20028;-96
2022/01/04 02:08:35;;;;;;;30.63;14.43;;;;;;;;;;6275156;22;20016;-95
2022/01/04 02:11:03;;;;;;;30.10;13.75;;;;;;;;;;6274948;22;20008;-95
2022/01/04 02:13:31;;;;;;;30.45;14.80;;;;;;;;;;6275643;22;20008;-94
2022/01/04 02:16:00;;;;;;;33.83;15.13;;;;;;;;;;6274690;22;20012;-94
2022/01/04 02:18:30;;;;;;;29.88;14.10;;;;;;;;;;6275309;22;20008;-95
2022/01/04 02:20:58;;;;;;;29.02;13.52;;;;;;;;;;6274871;22;20039;-95
2022/01/04 02:23:25;;;;;;;36.17;14.30;;;;;;;;;;6274773;22;20079;-96
2022/01/04 02:25:52;;;;;;;32.15;15.10;;;;;;;;;;6274887;22;20071;-95
2022/01/04 02:28:20;;;;;;;32.88;14.90;;;;;;;;;;6274738;22;20012;-95
2022/01/04 02:30:52;;;;;;;38.42;15.90;;;;;;;;;;6274744;22;20015;-95
2022/01/04 02:33:18;;;;;;;36.90;15.82;;;;;;;;;;6274758;22;20023;-95
2022/01/04 02:35:46;;;;;;;27.85;15.25;;;;;;;;;;6274764;22;20012;-96
2022/01/04 02:38:16;;;;;;;32.38;15.02;;;;;;;;;;6275219;22;20007;-95
2022/01/04 02:40:43;;;;;;;36.45;14.50;;;;;;;;;;6274720;22;20024;-94
2022/01/04 02:43:14;;;;;;;26.42;14.55;;;;;;;;;;6274697;22;20038;-95
2022/01/04 02:45:41;;;;;;;36.08;14.95;;;;;;;;;;6274655;22;20011;-95
2022/01/04 02:48:08;;;;;;;41.60;17.65;;;;;;;;;;6274419;22;20015;-95
2022/01/04 02:50:35;;;;;;;28.05;14.80;;;;;;;;;;6274609;22;20012;-96
2022/01/04 02:53:01;;;;;;;27.50;14.23;;;;;;;;;;6274641;22;20064;-95
2022/01/04 02:55:29;;;;;;;37.97;16.17;;;;;;;;;;6274485;22;20008;-95
2022/01/04 02:57:57;;;;;;;31.65;15.90;;;;;;;;;;6274467;22;20064;-95
2022/01/04 03:00:26;;;;;;;38.13;16.35;;;;;;;;;;6274221;22;20023;-96
2022/01/04 03:02:53;;;;;;;29.92;14.32;;;;;;;;;;6273987;22;20005;-95
2022/01/04 03:05:20;;;;;;;38.00;15.80;;;;;;;;;;6274197;22;20012;-95
2022/01/04 03:07:51;;;;;;;26.85;14.80;;;;;;;;;;6274445;22;20024;-95
2022/01/04 03:10:23;;;;;;;34.53;15.90;;;;;;;;;;6274491;22;20010;-96
2022/01/04 03:12:50;;;;;;;28.38;15.23;;;;;;;;;;6274434;22;20008;-96
2022/01/04 03:15:17;;;;;;;32.65;15.80;;;;;;;;;;6274425;22;20034;-95
2022/01/04 03:17:44;;;;;;;30.42;15.77;;;;;;;;;;6274118;22;20011;-95
2022/01/04 03:20:14;;;;;;;40.05;15.82;;;;;;;;;;6273805;22;20023;-95
2022/01/04 03:22:41;;;;;;;35.35;17.77;;;;;;;;;;6274119;22;20055;-95
2022/01/04 03:25:09;;;;;;;35.67;17.60;;;;;;;;;;6274350;22;20015;-95
2022/01/04 03:27:37;;;;;;;40.30;17.48;;;;;;;;;;6274224;22;20010;-95
2022/01/04 03:30:05;;;;;;;43.35;18.00;;;;;;;;;;6274203;22;20030;-95
2022/01/04 03:32:31;;;;;;;30.90;17.17;;;;;;;;;;6274229;22;20066;-95
2022/01/04 03:34:59;;;;;;;34.83;17.92;;;;;;;;;;6274017;22;20031;-95
2022/01/04 03:37:26;;;;;;;36.17;17.27;;;;;;;;;;6273898;22;20008;-95
2022/01/04 03:39:55;;;;;;;35.10;18.40;;;;;;;;;;6274768;22;20020;-95
2022/01/04 03:45:44;;;;;;;40.08;17.67;;;;;;;;;;6274804;22;20097;-96
2022/01/04 03:48:13;;;;;;;38.03;19.52;;;;;;;;;;6273929;22;20008;-95
2022/01/04 03:50:41;;;;;;;38.03;17.45;;;;;;;;;;6274018;22;20008;-95
2022/01/04 03:53:09;;;;;;;40.97;18.85;;;;;;;;;;6274132;22;20019;-95
2022/01/04 03:55:49;;;;;;;41.70;17.73;;;;;;;;;;6270011;22;20064;-94
2022/01/04 03:58:17;;;;;;;38.10;18.75;;;;;;;;;;6273818;22;20008;-96
2022/01/04 04:00:48;;;;;;;37.88;19.20;;;;;;;;;;6274551;22;20015;-95
2022/01/04 04:03:16;;;;;;;37.90;19.05;;;;;;;;;;6273845;22;20004;-94
2022/01/04 04:05:44;;;;;;;34.35;17.80;;;;;;;;;;6273888;22;20026;-95
2022/01/04 04:08:12;;;;;;;41.58;20.17;;;;;;;;;;6273900;22;20011;-95
2022/01/04 04:10:40;;;;;;;35.88;19.67;;;;;;;;;;6273950;22;20028;-94
2022/01/04 04:13:07;;;;;;;48.45;20.50;;;;;;;;;;6273874;22;20012;-95
2022/01/04 04:15:40;;;;;;;37.42;19.80;;;;;;;;;;6273959;22;20008;-94
2022/01/04 04:18:09;;;;;;;38.97;19.08;;;;;;;;;;6273628;22;20027;-92
2022/01/04 04:20:37;;;;;;;38.75;19.73;;;;;;;;;;6273655;22;20008;-94
2022/01/04 04:23:07;;;;;;;42.15;21.35;;;;;;;;;;6273714;22;20008;-94
2022/01/04 04:25:39;;;;;;;41.42;20.67;;;;;;;;;;6273881;22;20071;-94
2022/01/04 04:28:07;;;;;;;43.42;21.27;;;;;;;;;;6273735;22;20023;-93
2022/01/04 04:30:35;;;;;;;46.35;22.27;;;;;;;;;;6273817;22;20042;-94
2022/01/04 04:33:03;;;;;;;46.67;22.05;;;;;;;;;;6273709;22;20027;-94
2022/01/04 04:35:32;;;;;;;41.50;22.13;;;;;;;;;;6273676;22;20020;-95
2022/01/04 04:38:01;;;;;;;35.22;20.48;;;;;;;;;;6273705;22;20027;-95
2022/01/04 04:40:34;;;;;;;44.28;22.00;;;;;;;;;;6273776;22;20022;-95
2022/01/04 04:43:08;;;;;;;39.55;21.88;;;;;;;;;;6273773;22;20023;-95
2022/01/04 04:45:50;;;;;;;45.83;23.80;;;;;;;;;;6273684;22;20008;-95
2022/01/04 04:48:31;;;;;;;38.80;22.33;;;;;;;;;;6265991;22;20043;-95
2022/01/04 04:51:02;;;;;;;47.15;23.15;;;;;;;;;;6273748;22;20028;-95
2022/01/04 04:53:33;;;;;;;45.13;21.67;;;;;;;;;;6273819;22;20028;-95
2022/01/04 04:56:05;;;;;;;38.28;20.80;;;;;;;;;;6273856;22;20015;-94
2022/01/04 04:58:46;;;;;;;40.45;20.52;;;;;;;;;;6273713;22;20042;-94
2022/01/04 05:01:22;;;;;;;38.35;21.08;;;;;;;;;;6273721;22;20014;-94
2022/01/04 05:03:53;;;;;;;40.95;21.63;;;;;;;;;;6274291;22;20004;-94
2022/01/04 05:06:23;;;;;;;44.35;21.15;;;;;;;;;;6273743;22;20004;-94
2022/01/04 05:08:53;;;;;;;40.45;21.55;;;;;;;;;;6273607;22;20005;-93
2022/01/04 05:11:20;;;;;;;42.13;20.85;;;;;;;;;;6273669;22;20065;-95
2022/01/04 05:13:54;;;;;;;39.38;21.42;;;;;;;;;;6273716;22;20011;-94
2022/01/04 05:16:23;;;;;;;42.25;21.30;;;;;;;;;;6273367;22;20024;-94
2022/01/04 05:19:03;;;;;;;43.50;21.42;;;;;;;;;;6271950;22;20012;-94
2022/01/04 05:21:33;;;;;;;39.97;21.80;;;;;;;;;;6273610;22;20004;-94
2022/01/04 05:24:13;;;;;;;45.30;23.08;;;;;;;;;;6268305;22;20019;-95
2022/01/04 05:27:13;;;;;;;45.30;22.13;;;;;;;;;;6273980;22;20012;-95
2022/01/04 05:29:42;;;;;;;40.90;21.35;;;;;;;;;;6272431;22;20060;-95
2022/01/04 05:32:10;;;;;;;43.88;22.70;;;;;;;;;;6275355;22;20012;-94
2022/01/04 05:34:44;;;;;;;40.58;22.35;;;;;;;;;;6275457;22;20004;-94
2022/01/04 05:37:16;;;;;;;44.45;22.67;;;;;;;;;;6275145;22;20012;-94
2022/01/04 05:39:45;;;;;;;48.40;21.27;;;;;;;;;;6275288;22;20008;-94
2022/01/04 05:42:14;;;;;;;41.70;21.02;;;;;;;;;;6275408;22;20004;-96
2022/01/04 05:44:55;;;;;;;43.05;22.45;;;;;;;;;;6270081;22;20008;-95
2022/01/04 05:47:36;;;;;;;43.53;22.10;;;;;;;;;;6275477;22;20008;-95
2022/01/04 05:50:09;;;;;;;43.90;23.33;;;;;;;;;;6275249;22;20008;-95
2022/01/04 05:52:50;;;;;;;41.78;21.27;;;;;;;;;;6274239;22;20024;-94
2022/01/04 05:55:19;;;;;;;44.40;21.85;;;;;;;;;;6275819;22;20064;-95
2022/01/04 05:58:01;;;;;;;42.75;21.33;;;;;;;;;;6275401;22;20107;-95
2022/01/04 06:00:33;;;;;;;46.97;22.85;;;;;;;;;;6275149;22;20075;-94
2022/01/04 06:03:08;;;;;;;40.50;22.35;;;;;;;;;;6275052;22;20011;-94
2022/01/04 06:05:35;;;;;;;48.28;20.90;;;;;;;;;;6275161;22;20012;-93
2022/01/04 06:08:03;;;;;;;40.50;22.92;;;;;;;;;;6274956;22;20004;-94
2022/01/04 06:10:38;;;;;;;39.92;21.23;;;;;;;;;;6275058;22;20016;-94
2022/01/04 06:15:46;;;;;;;45.92;21.90;;;;;;;;;;6276229;22;20054;-92
2022/01/04 06:18:15;;;;;;;42.28;21.42;;;;;;;;;;6274631;22;20019;-95
2022/01/04 06:20:43;;;;;;;44.67;21.30;;;;;;;;;;6274823;22;20024;-95
2022/01/04 06:23:15;;;;;;;39.33;19.98;;;;;;;;;;6274654;22;20026;-95
2022/01/04 06:25:44;;;;;;;47.20;22.35;;;;;;;;;;6274983;22;20028;-95
2022/01/04 06:28:17;;;;;;;41.67;19.67;;;;;;;;;;6274792;22;20004;-94
2022/01/04 06:30:46;;;;;;;43.50;22.33;;;;;;;;;;6274954;22;20012;-94
2022/01/04 06:33:13;;;;;;;42.08;20.73;;;;;;;;;;6274933;22;20011;-95
2022/01/04 06:35:48;;;;;;;39.30;21.08;;;;;;;;;;6274925;22;20018;-95
2022/01/04 06:38:29;;;;;;;37.25;21.20;;;;;;;;;;6273580;22;20012;-96
2022/01/04 06:40:58;;;;;;;36.88;19.60;;;;;;;;;;6274472;22;20029;-94
2022/01/04 06:43:39;;;;;;;41.08;20.17;;;;;;;;;;6271640;22;20008;-94
2022/01/04 06:46:11;;;;;;;37.28;20.20;;;;;;;;;;6274643;22;20015;-94
2022/01/04 06:48:39;;;;;;;36.05;20.05;;;;;;;;;;6274708;22;20004;-94
2022/01/04 06:51:09;;;;;;;32.53;19.35;;;;;;;;;;6274559;22;20087;-95
2022/01/04 06:53:41;;;;;;;33.60;20.40;;;;;;;;;;6275322;22;20004;-94
2022/01/04 06:56:09;;;;;;;33.03;19.42;;;;;;;;;;6274519;22;20019;-95
2022/01/04 06:58:50;;;;;;;39.80;19.52;;;;;;;;;;6267629;22;20008;-95
2022/01/04 07:01:18;;;;;;;36.00;20.23;;;;;;;;;;6274306;22;20020;-95
2022/01/04 07:03:59;;;;;;;30.42;17.90;;;;;;;;;;6271022;22;20007;-95
2022/01/04 07:06:40;;;;;;;34.13;19.52;;;;;;;;;;6273416;22;20051;-93
2022/01/04 07:09:12;;;;;;;37.17;20.17;;;;;;;;;;6273364;22;20008;-95
2022/01/04 07:15:25;;;;;;;33.67;19.98;;;;;;;;;;6274428;22;20015;-94
2022/01/04 07:18:03;;;;;;;38.90;19.20;;;;;;;;;;6272582;22;20046;-94
2022/01/04 07:20:33;;;;;;;35.58;18.75;;;;;;;;;;6272817;22;20012;-94
2022/01/04 07:23:01;;;;;;;34.72;20.05;;;;;;;;;;6273297;22;20008;-93
2022/01/04 07:35:40;;;;;;;37.42;18.90;;;;;;;;;;6274715;22;20019;-94
2022/01/04 07:38:07;;;;;;;32.78;19.38;;;;;;;;;;6274119;22;20012;-94
2022/01/04 07:40:36;;;;;;;33.58;18.88;;;;;;;;;;6273981;22;20048;-95
2022/01/04 07:43:15;;;;;;;39.08;18.75;;;;;;;;;;6273939;22;20031;-95
2022/01/04 07:45:48;;;;;;;36.65;18.27;;;;;;;;;;6273859;22;20039;-94
2022/01/04 07:48:28;;;;;;;30.77;18.58;;;;;;;;;;6270916;22;20035;-95
2022/01/04 07:50:58;;;;;;;43.60;19.83;;;;;;;;;;6273627;22;20008;-94
2022/01/04 07:53:29;;;;;;;36.00;19.10;;;;;;;;;;6273991;22;20028;-94
2022/01/04 08:09:34;;;;;;;31.42;19.52;;;;;;;;;;6274161;22;20015;-95
2022/01/04 08:12:15;;;;;;;42.65;19.75;;;;;;;;;;6273029;22;20010;-95
2022/01/04 08:15:11;;;;;;;38.28;20.50;;;;;;;;;;6268085;22;20024;-94
2022/01/04 08:17:39;;;;;;;33.97;19.45;;;;;;;;;;6262862;23;20036;-93
2022/01/04 08:20:20;;;;;;;33.17;19.70;;;;;;;;;;6265058;22;20035;-94
2022/01/04 08:23:10;;;;;;;39.10;19.83;;;;;;;;;;6263947;23;20011;-94
2022/01/04 08:25:38;;;;;;;33.45;19.42;;;;;;;;;;6264389;23;20043;-94
2022/01/04 08:28:34;;;;;;;36.33;19.27;;;;;;;;;;6267535;22;20069;-93
2022/01/04 08:31:05;;;;;;;41.83;19.73;;;;;;;;;;6267492;22;20043;-92
2022/01/04 08:33:50;;;;;;;42.35;21.08;;;;;;;;;;6265170;22;20028;-93
2022/01/04 08:36:30;;;;;;;33.58;18.75;;;;;;;;;;6264050;23;20034;-93
2022/01/04 08:39:14;;;;;;;37.75;19.25;;;;;;;;;;6267688;22;20035;-94
2022/01/04 08:42:02;;;;;;;37.65;18.15;;;;;;;;;;6247988;22;20023;-94
2022/01/04 08:44:43;;;;;;;33.28;18.95;;;;;;;;;;6264038;23;20036;-94
2022/01/04 08:47:27;;;;;;;39.65;20.05;;;;;;;;;;6266490;23;20042;-94
2022/01/04 08:50:09;;;;;;;32.63;18.38;;;;;;;;;;6259594;22;20299;-95
2022/01/04 08:53:06;;;;;;;32.53;19.33;;;;;;;;;;6263461;22;20042;-94
2022/01/04 08:55:48;;;;;;;32.15;18.88;;;;;;;;;;6265500;23;20095;-94
2022/01/04 08:58:38;;;;;;;36.63;19.08;;;;;;;;;;6263550;23;20043;-94
2022/01/04 09:01:19;;;;;;;33.25;18.42;;;;;;;;;;6265763;23;19996;-94
2022/01/04 09:04:01;;;;;;;37.78;19.70;;;;;;;;;;6265233;22;20032;-94
2022/01/04 09:06:41;;;;;;;33.90;18.73;;;;;;;;;;6265894;22;20047;-94
2022/01/04 09:09:22;;;;;;;35.13;19.00;;;;;;;;;;6265345;23;20117;-94
2022/01/04 09:12:03;;;;;;;33.55;18.65;;;;;;;;;;6265495;22;20086;-94
2022/01/04 09:20:49;;;;;;;37.50;18.88;;;;;;;;;;6270367;23;20020;-94
2022/01/04 09:23:29;;;;;;;31.08;18.13;;;;;;;;;;6268687;22;20091;-94
2022/01/04 09:26:10;;;;;;;29.10;17.35;;;;;;;;;;6267469;22;20004;-93
2022/01/04 09:28:53;;;;;;;33.30;18.58;;;;;;;;;;6247071;23;20079;-94
2022/01/04 09:32:02;;;;;;;30.52;16.85;;;;;;;;;;6268298;22;20038;-93
2022/01/04 09:34:43;;;;;;;32.58;18.15;;;;;;;;;;6271053;22;20046;-94
2022/01/04 09:37:24;;;;;;;38.35;19.48;;;;;;;;;;6268575;22;20034;-93
2022/01/04 09:40:05;;;;;;;29.55;19.60;;;;;;;;;;6265391;22;20076;-93
2022/01/04 09:42:48;;;;;;;28.63;18.30;;;;;;;;;;6267773;22;20028;-93
2022/01/04 09:54:56;;;;;;;32.63;17.75;;;;;;;;;;6274412;22;20020;-94
2022/01/04 10:04:07;;;;;;;27.90;17.30;;;;;;;;;;6249821;22;20002;-94
2022/01/04 10:07:07;;;;;;;36.72;17.73;;;;;;;;;;6272181;22;20023;-95
2022/01/04 10:10:03;;;;;;;39.97;19.38;;;;;;;;;;6259520;22;20027;-93
2022/01/04 10:12:57;;;;;;;40.05;19.83;;;;;;;;;;6267283;22;20004;-93
2022/01/04 10:15:48;;;;;;;35.70;19.85;;;;;;;;;;6245247;22;20103;-93
2022/01/04 10:18:29;;;;;;;36.80;18.27;;;;;;;;;;6243301;22;20024;-93
2022/01/04 10:21:44;;;;;;;37.67;21.48;;;;;;;;;;6243451;22;20044;-93
2022/01/04 10:24:24;;;;;;;37.00;19.52;;;;;;;;;;6246328;22;20004;-94
2022/01/04 10:27:27;;;;;;;34.63;20.00;;;;;;;;;;6237686;23;20259;-92
2022/01/04 10:30:16;;;;;;;45.20;20.98;;;;;;;;;;6236916;22;20091;-94
2022/01/04 10:33:11;;;;;;;40.17;22.38;;;;;;;;;;6244783;22;20065;-94
2022/01/04 10:36:08;;;;;;;37.08;21.08;;;;;;;;;;6262480;22;20015;-93
2022/01/04 10:38:52;;;;;;;35.38;21.55;;;;;;;;;;6241249;22;20016;-94
2022/01/04 10:41:36;;;;;;;40.20;22.27;;;;;;;;;;6247805;22;20012;-94
2022/01/04 10:44:04;;;;;;;37.20;19.98;;;;;;;;;;6238300;23;20023;-93
2022/01/04 10:46:42;;;;;;;34.00;18.88;;;;;;;;;;6239301;23;20028;-92
2022/01/04 10:52:45;;;;;;;35.38;16.45;;;;;;;;;;6272371;22;20023;-92
2022/01/04 10:55:13;;;;;;;32.10;15.38;;;;;;;;;;6243072;22;20020;-93
2022/01/04 10:57:51;;;;;;;25.70;14.77;;;;;;;;;;6246188;22;20042;-93
2022/01/04 11:00:33;;;;;;;28.55;14.93;;;;;;;;;;6240621;22;20032;-94
2022/01/04 11:03:21;;;;;;;19.15;10.82;;;;;;;;;;6270149;22;20023;-93
2022/01/04 11:23:16;;;;;;;4.68;1.27;;;;;;;;;;6271545;22;20012;-94
2022/01/04 11:26:14;;;;;;;4.65;1.45;;;;;;;;;;6269147;22;20058;-94
2022/01/04 11:29:07;;;;;;;4.55;1.60;;;;;;;;;;6246550;22;20004;-92
2022/01/04 11:35:29;;;;;;;5.40;1.25;;;;;;;;;;6270410;22;20004;-94
2022/01/04 11:38:12;;;;;;;7.50;2.22;;;;;;;;;;6247341;22;20103;-94
2022/01/04 11:41:02;;;;;;;9.50;1.50;;;;;;;;;;6246055;22;20016;-94
2022/01/04 11:46:38;;;;;;;5.43;2.35;;;;;;;;;;6222362;22;20028;-94
2022/01/04 11:49:31;;;;;;;;;;;;;;;;;;6208505;22;20015;-95
2022/01/04 12:06:55;;;;;;;9.23;5.28;;;;;;;;;;6219907;22;19914;-94
2022/01/04 12:38:41;;;;;;;18.25;6.07;;;;;;;;;;6246268;22;20023;-93
2022/01/04 12:41:42;;;;;;;18.88;6.93;;;;;;;;;;6272427;22;20036;-93
2022/01/04 12:44:25;;;;;;;16.05;6.40;;;;;;;;;;6272146;22;20031;-94
2022/01/04 12:47:25;;;;;;;13.02;5.63;;;;;;;;;;6274919;22;20024;-93
2022/01/04 12:50:07;;;;;;;;;;;;;;;;;;6273476;22;20067;-92
2022/01/04 16:30:14;;;;;;;11.67;1.50;;;;;;;;;;6211929;23;20024;-95
2022/01/04 16:40:24;;;;;;;3.42;1.00;;;;;;;;;;6213852;23;20040;-94
2022/01/04 16:43:09;;;;;;;8.90;1.40;;;;;;;;;;6212420;23;20016;-94
2022/01/04 16:49:14;;;;;;;9.38;1.58;;;;;;;;;;6213468;23;20019;-96
2022/01/04 16:52:02;;;;;;;8.02;1.52;;;;;;;;;;6209871;23;20061;-95
2022/01/04 16:54:43;;;;;;;7.28;1.50;;;;;;;;;;6189759;23;20007;-95
2022/01/04 16:57:23;;;;;;;7.28;1.60;;;;;;;;;;6188653;23;20009;-95
2022/01/04 17:34:22;;;;;;;10.77;1.42;;;;;;;;;;6230342;22;20027;-93
2022/01/04 17:37:03;;;;;;;7.03;1.42;;;;;;;;;;6277221;23;20019;-95
2022/01/04 17:39:44;;;;;;;10.45;1.77;;;;;;;;;;6276020;23;19996;-95
2022/01/04 17:42:27;;;;;;;6.00;1.77;;;;;;;;;;6275028;23;20008;-96
2022/01/04 18:09:10;;;;;;;8.82;2.08;;;;;;;;;;6259620;22;20075;-95
2022/01/04 18:11:51;;;;;;;9.00;1.90;;;;;;;;;;6274442;22;20012;-94
2022/01/04 18:14:31;;;;;;;14.52;2.42;;;;;;;;;;6273062;22;20014;-95
2022/01/04 18:34:10;;;;;;;9.20;2.22;;;;;;;;;;6274984;22;20043;-93
2022/01/04 18:36:51;;;;;;;7.30;1.88;;;;;;;;;;6273060;22;20004;-93
2022/01/04 18:39:27;;;;;;;10.20;1.92;;;;;;;;;;6279327;22;20042;-95
2022/01/04 18:41:59;;;;;;;15.82;2.03;;;;;;;;;;6280600;22;20023;-95
2022/01/04 19:04:45;;;;;;;20.48;2.88;;;;;;;;;;6306089;22;20048;-95
2022/01/04 19:07:27;;;;;;;12.20;3.47;;;;;;;;;;6280013;22;20007;-95
2022/01/04 19:17:27;;;;;;;11.40;2.50;;;;;;;;;;6305549;22;20046;-94
2022/01/04 19:20:12;;;;;;;18.40;2.63;;;;;;;;;;6281348;22;20007;-95
2022/01/04 19:22:55;;;;;;;15.07;2.28;;;;;;;;;;6281390;22;20024;-95
2022/01/04 19:25:35;;;;;;;20.70;3.13;;;;;;;;;;6281095;22;20014;-95
2022/01/04 19:28:16;;;;;;;10.50;3.05;;;;;;;;;;6281151;22;20014;-95
2022/01/04 19:31:02;;;;;;;11.07;2.17;;;;;;;;;;6303900;22;20007;-94
2022/01/04 21:44:49;;;;;;;14.03;2.83;;;;;;;;;;6240674;22;20007;-94
2022/01/04 21:47:18;;;;;;;16.13;2.55;;;;;;;;;;6274561;22;20035;-94
2022/01/04 21:49:48;;;;;;;15.23;2.35;;;;;;;;;;6275637;22;20032;-95
2022/01/04 21:56:03;;;;;;;16.25;2.80;;;;;;;;;;6275538;22;19995;-91
2022/01/04 21:58:33;;;;;;;19.23;3.15;;;;;;;;;;6274976;22;20027;-94
2022/01/04 22:01:03;;;;;;;15.32;1.75;;;;;;;;;;6274843;22;20087;-94
2022/01/04 22:03:34;;;;;;;12.35;2.38;;;;;;;;;;6275029;22;20011;-94
2022/01/04 22:06:03;;;;;;;17.30;2.22;;;;;;;;;;6274355;22;20018;-94
2022/01/04 22:08:40;;;;;;;12.50;2.72;;;;;;;;;;6275087;22;20003;-94
2022/01/04 22:11:11;;;;;;;16.88;3.13;;;;;;;;;;6274805;22;20016;-94
2022/01/04 22:13:39;;;;;;;15.60;2.70;;;;;;;;;;6274284;22;20042;-94
2022/01/04 22:16:33;;;;;;;14.13;2.42;;;;;;;;;;6274936;22;20008;-94
2022/01/04 22:19:01;;;;;;;12.02;2.70;;;;;;;;;;6273791;22;20008;-94
2022/01/04 22:21:38;;;;;;;22.05;3.03;;;;;;;;;;6274150;22;20028;-95
2022/01/04 22:24:13;;;;;;;13.75;2.80;;;;;;;;;;6274474;22;20008;-94
2022/01/04 22:26:41;;;;;;;22.45;4.32;;;;;;;;;;6274962;22;20094;-94
2022/01/04 22:29:10;;;;;;;14.07;2.97;;;;;;;;;;6274358;22;20011;-94
2022/01/04 22:34:48;;;;;;;16.13;2.15;;;;;;;;;;6266284;22;19907;-95
2022/01/04 22:37:15;;;;;;;14.50;2.90;;;;;;;;;;6274018;22;20031;-95
2022/01/04 22:39:44;;;;;;;16.25;2.38;;;;;;;;;;6273915;22;20012;-93
2022/01/04 22:42:11;;;;;;;6.50;1.90;;;;;;;;;;6273518;22;20008;-94
2022/01/04 22:44:44;;;;;;;10.65;1.98;;;;;;;;;;6273743;22;20004;-94
2022/01/04 22:47:12;;;;;;;8.48;2.28;;;;;;;;;;6273177;22;20008;-93
2022/01/04 22:49:40;;;;;;;12.98;2.75;;;;;;;;;;6273389;22;20046;-94
2022/01/04 22:52:15;;;;;;;8.23;2.80;;;;;;;;;;6273744;22;20008;-95
2022/01/04 22:54:59;;;;;;;10.98;2.47;;;;;;;;;;6273918;22;20015;-92
2022/01/04 22:57:27;;;;;;;13.35;2.80;;;;;;;;;;6273715;22;20015;-94
2022/01/04 22:59:56;;;;;;;14.15;3.13;;;;;;;;;;6273387;22;20008;-94
2022/01/04 23:02:26;;;;;;;9.52;2.17;;;;;;;;;;6273158;22;20038;-94
2022/01/04 23:04:53;;;;;;;12.98;2.85;;;;;;;;;;6273497;22;20038;-94
2022/01/04 23:07:21;;;;;;;8.23;2.20;;;;;;;;;;6273378;22;20035;-94
2022/01/04 23:09:51;;;;;;;17.95;2.45;;;;;;;;;;6274112;22;20019;-94
2022/01/04 23:12:18;;;;;;;14.88;3.00;;;;;;;;;;6273760;22;20024;-94
2022/01/04 23:18:14;;;;;;;9.52;2.67;;;;;;;;;;6273845;22;19994;-94
2022/01/04 23:20:41;;;;;;;8.45;1.85;;;;;;;;;;6273108;22;20036;-94
2022/01/04 23:23:08;;;;;;;15.18;2.08;;;;;;;;;;6273678;22;20016;-93
2022/01/04 23:32:48;;;;;;;9.10;2.80;;;;;;;;;;6274070;22;20055;-92
2022/01/04 23:35:17;;;;;;;11.32;2.75;;;;;;;;;;6278763;22;20034;-94
2022/01/04 23:37:46;;;;;;;10.27;2.47;;;;;;;;;;6278745;22;20007;-94
2022/01/04 23:40:13;;;;;;;19.13;3.28;;;;;;;;;;6278888;22;20055;-94
2022/01/04 23:42:40;;;;;;;12.80;3.08;;;;;;;;;;6278497;22;20011;-94
2022/01/04 23:45:08;;;;;;;14.25;2.65;;;;;;;;;;6278904;22;20026;-94
2022/01/04 23:47:36;;;;;;;12.55;3.05;;;;;;;;;;6278616;22;20012;-95
2022/01/04 23:50:11;;;;;;;16.70;2.53;;;;;;;;;;6279767;22;20033;-93
2022/01/04 23:52:39;;;;;;;19.15;2.63;;;;;;;;;;6278176;22;20023;-94
2022/01/04 23:55:07;;;;;;;24.73;3.20;;;;;;;;;;6278814;22;20024;-94
2022/01/04 23:57:36;;;;;;;15.88;2.22;;;;;;;;;;6304949;22;20050;-93
